createdAt,value
2018-12-15T00:00:12.312Z,20.27
2018-12-15T00:02:46.384Z,20.07
2018-12-15T00:05:20.535Z,20.03
2018-12-15T00:07:54.442Z,21.40
2018-12-15T00:10:28.209Z,22.00
2018-12-15T00:13:02.225Z,20.13
2018-12-15T00:15:36.267Z,19.87
2018-12-15T00:18:10.173Z,20.77
2018-12-15T00:20:43.982Z,19.40
2018-12-15T00:23:17.886Z,20.90
2018-12-15T00:25:51.689Z,24.33
2018-12-15T00:28:25.368Z,20.80
2018-12-15T00:30:59.201Z,21.00
2018-12-15T00:33:33.263Z,19.17
2018-12-15T00:36:07.220Z,20.27
2018-12-15T00:38:41.327Z,20.53
2018-12-15T00:41:15.240Z,20.33
2018-12-15T00:43:49.349Z,21.07
2018-12-15T00:46:23.093Z,18.53
2018-12-15T00:48:56.917Z,21.37
2018-12-15T00:51:30.966Z,18.90
2018-12-15T00:54:04.883Z,19.70
2018-12-15T00:56:39.090Z,21.60
2018-12-15T00:59:13.098Z,22.00
2018-12-15T01:01:47.114Z,20.57
2018-12-15T01:04:21.326Z,21.17
2018-12-15T01:06:55.334Z,22.87
2018-12-15T01:09:29.444Z,20.27
2018-12-15T01:12:03.152Z,20.83
2018-12-15T01:14:37.159Z,21.50
2018-12-15T01:17:11.267Z,21.50
2018-12-15T01:19:45.278Z,17.83
2018-12-15T01:22:18.983Z,20.67
2018-12-15T01:24:52.685Z,19.80
2018-12-15T01:27:26.694Z,20.70
2018-12-15T01:30:00.599Z,17.73
2018-12-15T01:32:34.387Z,19.00
2018-12-15T01:35:08.332Z,21.67
2018-12-15T01:37:42.321Z,20.70
2018-12-15T01:40:16.337Z,21.63
2018-12-15T01:42:50.442Z,21.17
2018-12-15T01:45:24.350Z,20.77
2018-12-15T01:47:58.159Z,22.07
2018-12-15T01:50:32.164Z,19.07
2018-12-15T01:53:06.071Z,19.10
2018-12-15T01:55:39.863Z,18.73
2018-12-15T01:58:13.681Z,20.02
2018-12-15T02:00:47.488Z,19.53
2018-12-15T02:03:21.545Z,19.67
2018-12-15T02:05:55.709Z,20.03
2018-12-15T02:08:29.923Z,18.27
2018-12-15T02:11:03.937Z,19.90
2018-12-15T02:13:37.634Z,19.53
2018-12-15T02:16:11.747Z,18.13
2018-12-15T02:18:45.628Z,17.93
2018-12-15T02:21:19.664Z,18.30
2018-12-15T02:23:53.471Z,19.23
2018-12-15T02:26:27.276Z,17.87
2018-12-15T02:29:01.385Z,17.33
2018-12-15T02:31:35.136Z,19.07
2018-12-15T02:34:09.201Z,20.13
2018-12-15T02:36:43.112Z,20.43
2018-12-15T02:39:17.120Z,20.07
2018-12-15T02:41:50.812Z,18.80
2018-12-15T02:44:24.623Z,19.43
2018-12-15T02:46:58.430Z,18.17
2018-12-15T02:49:32.337Z,18.13
2018-12-15T02:52:06.325Z,18.40
2018-12-15T02:54:40.355Z,17.93
2018-12-15T02:57:14.366Z,14.93
2018-12-15T02:59:48.373Z,20.83
2018-12-15T03:02:22.383Z,20.67
2018-12-15T03:04:56.395Z,19.60
2018-12-15T03:07:30.197Z,18.33
2018-12-15T03:10:05.851Z,19.30
2018-12-15T03:12:39.764Z,17.67
2018-12-15T03:15:13.561Z,21.03
2018-12-15T03:17:49.028Z,17.17
2018-12-15T03:20:23.082Z,17.33
2018-12-15T03:22:57.123Z,17.87
2018-12-15T03:25:31.000Z,17.47
2018-12-15T03:28:05.146Z,19.50
2018-12-15T03:30:39.152Z,16.67
2018-12-15T03:33:12.969Z,17.53
2018-12-15T03:35:47.681Z,20.67
2018-12-15T03:38:21.795Z,20.23
2018-12-15T03:40:55.679Z,19.90
2018-12-15T03:43:29.814Z,18.37
2018-12-15T03:46:03.824Z,19.03
2018-12-15T03:48:37.732Z,19.50
2018-12-15T03:51:11.525Z,19.23
2018-12-15T03:53:45.491Z,20.10
2018-12-15T03:56:19.553Z,20.43
2018-12-15T03:58:53.261Z,20.13
2018-12-15T04:01:27.369Z,21.07
2018-12-15T04:04:01.068Z,17.73
2018-12-15T04:06:35.192Z,17.40
2018-12-15T04:09:08.835Z,17.97
2018-12-15T04:11:42.600Z,20.00
2018-12-15T04:14:16.597Z,18.47
2018-12-15T04:16:50.404Z,17.33
2018-12-15T04:19:24.514Z,16.90
2018-12-15T04:22:20.752Z,19.13
2018-12-15T04:24:54.549Z,19.00
2018-12-15T04:27:28.415Z,17.43
2018-12-15T04:30:02.465Z,19.17
2018-12-15T04:32:36.372Z,18.80
2018-12-15T04:35:10.280Z,18.93
2018-12-15T04:37:44.086Z,18.20
2018-12-15T04:40:18.151Z,20.43
2018-12-15T04:42:52.210Z,18.60
2018-12-15T04:45:26.062Z,18.90
2018-12-15T04:48:00.102Z,20.73
2018-12-15T04:50:34.220Z,18.13
2018-12-15T04:53:08.216Z,18.97
2018-12-15T04:55:43.072Z,20.50
2018-12-15T04:58:16.789Z,19.33
2018-12-15T05:00:50.786Z,18.80
2018-12-15T05:03:24.656Z,22.17
2018-12-15T05:05:58.707Z,24.67
2018-12-15T05:08:32.506Z,22.67
2018-12-15T05:11:06.518Z,22.73
2018-12-15T05:13:40.321Z,23.93
2018-12-15T05:16:14.023Z,23.93
2018-12-15T05:18:47.849Z,24.70
2018-12-15T05:21:21.837Z,24.77
2018-12-15T05:23:55.595Z,26.27
2018-12-15T05:26:29.652Z,24.83
2018-12-15T05:29:03.456Z,26.90
2018-12-15T05:31:37.470Z,26.97
2018-12-15T05:34:11.475Z,21.77
2018-12-15T05:36:45.332Z,24.77
2018-12-15T05:39:19.255Z,21.00
2018-12-15T05:41:53.266Z,18.57
2018-12-15T05:44:27.210Z,19.80
2018-12-15T05:47:02.138Z,22.50
2018-12-15T05:49:36.057Z,23.37
2018-12-15T05:52:09.850Z,24.53
2018-12-15T05:54:43.655Z,26.17
2018-12-15T05:57:17.357Z,24.70
2018-12-15T05:59:51.367Z,25.90
2018-12-15T06:02:25.684Z,24.43
2018-12-15T06:04:59.796Z,24.40
2018-12-15T06:07:33.704Z,23.73
2018-12-15T06:10:07.921Z,25.27
2018-12-15T06:12:41.825Z,25.33
2018-12-15T06:15:15.630Z,24.07
2018-12-15T06:17:49.434Z,20.43
2018-12-15T06:20:23.343Z,20.73
2018-12-15T06:22:57.452Z,21.67
2018-12-15T06:25:31.465Z,23.67
2018-12-15T06:28:05.370Z,24.03
2018-12-15T06:30:39.277Z,21.23
2018-12-15T06:33:13.166Z,23.77
2018-12-15T06:35:47.402Z,19.03
2018-12-15T06:38:21.305Z,20.07
2018-12-15T06:40:55.215Z,21.40
2018-12-15T06:43:29.125Z,18.10
2018-12-15T06:46:03.327Z,22.47
2018-12-15T06:48:38.223Z,20.70
2018-12-15T06:51:12.301Z,19.40
2018-12-15T06:53:46.063Z,19.17
2018-12-15T06:56:22.018Z,22.07
2018-12-15T06:58:56.065Z,21.97
2018-12-15T07:01:30.054Z,22.63
2018-12-15T07:04:03.966Z,23.27
2018-12-15T07:06:37.970Z,25.10
2018-12-15T07:09:12.042Z,23.30
2018-12-15T07:11:45.784Z,24.23
2018-12-15T07:14:19.794Z,23.10
2018-12-15T07:16:53.698Z,26.17
2018-12-15T07:19:27.821Z,21.13
2018-12-15T07:22:01.829Z,21.93
2018-12-15T07:24:35.730Z,24.23
2018-12-15T07:27:09.637Z,23.93
2018-12-15T07:29:43.544Z,25.37
2018-12-15T07:32:17.553Z,22.53
2018-12-15T07:34:51.563Z,23.33
2018-12-15T07:37:25.420Z,24.27
2018-12-15T07:39:59.586Z,22.97
2018-12-15T07:42:33.388Z,22.30
2018-12-15T07:45:07.502Z,21.10
2018-12-15T07:47:41.364Z,19.67
2018-12-15T07:50:15.619Z,20.40
2018-12-15T07:52:49.372Z,21.53
2018-12-15T07:55:23.435Z,18.80
2018-12-15T07:57:57.445Z,16.97
2018-12-15T08:00:31.352Z,19.43
2018-12-15T08:03:05.264Z,21.17
2018-12-15T08:05:39.268Z,21.17
2018-12-15T08:08:13.175Z,18.87
2018-12-15T08:10:52.817Z,19.10
2018-12-15T08:13:28.677Z,18.97
2018-12-15T08:16:02.579Z,18.53
2018-12-15T08:18:36.280Z,20.93
2018-12-15T08:21:10.190Z,17.63
2018-12-15T08:23:44.156Z,18.60
2018-12-15T08:26:18.207Z,19.93
2018-12-15T08:28:52.169Z,19.37
2018-12-15T08:31:26.310Z,21.20
2018-12-15T08:34:00.199Z,19.63
2018-12-15T08:36:34.244Z,19.77
2018-12-15T08:39:08.050Z,20.40
2018-12-15T08:41:41.954Z,20.00
2018-12-15T08:44:15.760Z,19.53
2018-12-15T08:46:49.424Z,21.30
2018-12-15T08:49:23.475Z,21.40
2018-12-15T08:51:57.380Z,20.33
2018-12-15T08:54:31.389Z,21.23
2018-12-15T08:57:05.398Z,19.43
2018-12-15T08:59:39.104Z,21.03
2018-12-15T09:02:12.905Z,20.60
2018-12-15T09:04:46.882Z,20.13
2018-12-15T09:07:21.029Z,21.17
2018-12-15T09:09:54.729Z,23.67
2018-12-15T09:12:28.846Z,22.17
2018-12-15T09:15:02.954Z,21.10
2018-12-15T09:17:37.064Z,21.80
2018-12-15T09:20:10.768Z,23.70
2018-12-15T09:22:44.953Z,21.23
2018-12-15T09:25:18.889Z,24.20
2018-12-15T09:27:52.777Z,23.80
2018-12-15T09:30:26.703Z,21.60
2018-12-15T09:33:00.714Z,23.73
2018-12-15T09:35:34.517Z,25.00
2018-12-15T09:38:08.424Z,24.47
2018-12-15T09:40:42.333Z,23.97
2018-12-15T09:43:16.340Z,24.17
2018-12-15T09:45:50.317Z,22.30
2018-12-15T09:48:24.360Z,22.37
2018-12-15T09:50:58.169Z,21.73
2018-12-15T09:53:32.174Z,21.60
2018-12-15T09:56:06.153Z,22.17
2018-12-15T09:58:40.193Z,22.27
2018-12-15T10:01:14.407Z,22.53
2018-12-15T10:03:48.417Z,21.27
2018-12-15T10:06:22.372Z,20.07
2018-12-15T10:08:56.437Z,19.60
2018-12-15T10:11:30.142Z,19.97
2018-12-15T10:14:04.253Z,22.27
2018-12-15T10:16:38.263Z,18.97
2018-12-15T10:19:12.171Z,18.40
2018-12-15T10:21:46.026Z,22.90
2018-12-15T10:24:20.085Z,19.63
2018-12-15T10:26:55.213Z,20.23
2018-12-15T10:29:34.733Z,18.77
2018-12-15T10:32:14.299Z,19.63
2018-12-15T10:34:48.414Z,18.07
2018-12-15T10:37:22.279Z,18.63
2018-12-15T10:39:56.428Z,19.77
2018-12-15T10:42:30.646Z,19.40
2018-12-15T10:45:05.274Z,18.67
2018-12-15T10:47:39.224Z,21.40
2018-12-15T10:50:13.184Z,22.63
2018-12-15T10:52:47.092Z,20.37
2018-12-15T10:55:20.999Z,19.63
2018-12-15T10:57:54.803Z,19.83
2018-12-15T11:00:34.240Z,18.60
2018-12-15T11:03:08.147Z,18.93
2018-12-15T11:05:42.054Z,19.73
2018-12-15T11:08:15.938Z,20.27
2018-12-15T11:10:50.074Z,19.70
2018-12-15T11:13:23.822Z,20.67
2018-12-15T11:15:57.889Z,17.73
2018-12-15T11:18:31.757Z,18.70
2018-12-15T11:21:05.907Z,21.80
2018-12-15T11:23:40.122Z,20.30
2018-12-15T11:26:14.234Z,19.33
2018-12-15T11:28:48.141Z,21.33
2018-12-15T11:31:21.946Z,20.47
2018-12-15T11:33:56.671Z,19.17
2018-12-15T11:36:30.681Z,21.73
2018-12-15T11:39:06.772Z,18.67
2018-12-15T11:41:40.646Z,19.80
2018-12-15T11:44:14.554Z,20.30
2018-12-15T11:46:48.422Z,20.30
2018-12-15T11:49:22.718Z,18.33
2018-12-15T11:51:56.685Z,22.70
2018-12-15T11:54:30.618Z,20.17
2018-12-15T11:57:04.612Z,17.53
2018-12-15T11:59:38.662Z,19.40
2018-12-15T12:02:12.521Z,19.67
2018-12-15T12:04:46.630Z,18.03
2018-12-15T12:07:20.435Z,16.93
2018-12-15T12:09:54.445Z,18.43
2018-12-15T12:12:28.237Z,18.23
2018-12-15T12:15:02.259Z,20.33
2018-12-15T12:17:36.031Z,20.90
2018-12-15T12:20:10.176Z,20.07
2018-12-15T12:22:44.288Z,20.03
2018-12-15T12:25:18.195Z,20.17
2018-12-15T12:27:52.102Z,18.90
2018-12-15T12:30:26.935Z,17.57
2018-12-15T12:33:00.837Z,18.27
2018-12-15T12:35:34.951Z,20.87
2018-12-15T12:38:09.163Z,17.13
2018-12-15T12:40:43.073Z,20.03
2018-12-15T12:43:17.084Z,17.33
2018-12-15T12:45:51.095Z,17.93
2018-12-15T12:48:24.840Z,16.77
2018-12-15T12:50:58.802Z,17.70
2018-12-15T12:53:32.612Z,16.83
2018-12-15T12:56:06.618Z,17.27
2018-12-15T12:58:40.421Z,20.77
2018-12-15T13:01:14.431Z,18.17
2018-12-15T13:03:48.440Z,18.50
2018-12-15T13:06:22.616Z,18.17
2018-12-15T13:08:56.772Z,15.70
2018-12-15T13:11:30.783Z,18.47
2018-12-15T13:14:04.636Z,16.93
2018-12-15T13:16:38.779Z,16.83
2018-12-15T13:19:12.809Z,19.03
2018-12-15T13:21:46.915Z,24.40
2018-12-15T13:24:20.941Z,31.37
2018-12-15T13:26:59.210Z,30.10
2018-12-15T13:29:31.198Z,31.90
2018-12-15T13:32:06.129Z,30.67
2018-12-15T13:34:39.938Z,29.47
2018-12-15T13:37:13.944Z,34.90
2018-12-15T13:39:47.748Z,32.60
2018-12-15T13:42:21.656Z,30.47
2018-12-15T13:44:55.619Z,32.47
2018-12-15T13:47:29.678Z,30.67
2018-12-15T13:50:10.138Z,33.00
2018-12-15T13:52:41.498Z,33.50
2018-12-15T13:55:15.493Z,32.73
2018-12-15T13:57:49.399Z,30.97
2018-12-15T14:00:23.203Z,30.03
2018-12-15T14:02:57.114Z,28.10
2018-12-15T14:05:31.223Z,29.63
2018-12-15T14:08:05.074Z,33.17
2018-12-15T14:10:39.140Z,30.17
2018-12-15T14:13:12.880Z,28.07
2018-12-15T14:15:47.350Z,27.13
2018-12-15T14:18:21.319Z,28.67
2018-12-15T14:20:55.284Z,28.77
2018-12-15T14:23:29.289Z,26.47
2018-12-15T14:26:04.836Z,24.97
2018-12-15T14:28:38.640Z,30.73
2018-12-15T14:31:13.366Z,28.27
2018-12-15T14:33:47.543Z,27.23
2018-12-15T14:36:21.898Z,27.43
2018-12-15T14:38:55.705Z,27.93
2018-12-15T14:41:29.609Z,28.93
2018-12-15T14:44:03.337Z,27.47
2018-12-15T14:46:37.323Z,27.03
2018-12-15T14:49:11.127Z,29.67
2018-12-15T14:51:45.092Z,26.10
2018-12-15T14:54:19.248Z,27.20
2018-12-15T14:56:53.257Z,26.37
2018-12-15T14:59:27.166Z,28.53
2018-12-15T15:02:01.688Z,26.63
2018-12-15T15:04:35.593Z,27.67
2018-12-15T15:07:09.499Z,26.37
2018-12-15T15:09:43.410Z,28.20
2018-12-15T15:12:17.228Z,30.10
2018-12-15T15:14:51.223Z,27.70
2018-12-15T15:17:25.233Z,28.03
2018-12-15T15:19:59.138Z,30.47
2018-12-15T15:22:32.944Z,32.13
2018-12-15T15:25:07.060Z,27.07
2018-12-15T15:27:40.700Z,31.50
2018-12-15T15:30:15.549Z,29.43
2018-12-15T15:32:49.321Z,28.80
2018-12-15T15:35:23.400Z,28.70
2018-12-15T15:37:57.409Z,28.07
2018-12-15T15:40:31.317Z,28.23
2018-12-15T15:43:05.224Z,28.53
2018-12-15T15:45:39.336Z,28.77
2018-12-15T15:48:13.450Z,31.90
2018-12-15T15:50:47.188Z,29.77
2018-12-15T15:53:20.833Z,28.97
2018-12-15T15:55:54.765Z,30.83
2018-12-15T15:58:28.973Z,29.77
2018-12-15T16:01:02.782Z,30.40
2018-12-15T16:03:36.788Z,29.50
2018-12-15T16:06:10.798Z,29.27
2018-12-15T16:08:44.807Z,32.07
2018-12-15T16:11:18.575Z,29.33
2018-12-15T16:13:52.726Z,30.90
2018-12-15T16:16:32.997Z,29.27
2018-12-15T16:19:06.813Z,32.30
2018-12-15T16:21:40.897Z,30.13
2018-12-15T16:24:15.008Z,30.67
2018-12-15T16:26:48.813Z,31.30
2018-12-15T16:29:22.799Z,31.90
2018-12-15T16:31:56.832Z,31.07
2018-12-15T16:34:30.843Z,33.37
2018-12-15T16:37:04.852Z,31.07
2018-12-15T16:39:38.665Z,32.23
2018-12-15T16:42:12.879Z,31.40
2018-12-15T16:44:46.983Z,31.17
2018-12-15T16:47:20.740Z,31.13
2018-12-15T16:49:54.575Z,29.00
2018-12-15T16:52:29.429Z,30.83
2018-12-15T16:55:04.660Z,29.27
2018-12-15T16:57:38.571Z,34.00
2018-12-15T17:00:13.151Z,31.20
2018-12-15T17:02:47.202Z,29.17
2018-12-15T17:05:21.211Z,30.97
2018-12-15T17:07:55.116Z,28.67
2018-12-15T17:10:28.822Z,30.27
2018-12-15T17:13:02.829Z,31.80
2018-12-15T17:15:36.736Z,28.07
2018-12-15T17:18:10.606Z,27.03
2018-12-15T17:20:44.758Z,27.10
2018-12-15T17:23:18.635Z,27.87
2018-12-15T17:25:52.774Z,28.90
2018-12-15T17:28:26.644Z,29.87
2018-12-15T17:31:00.895Z,28.60
2018-12-15T17:33:34.705Z,26.97
2018-12-15T17:36:08.711Z,30.40
2018-12-15T17:38:42.515Z,31.77
2018-12-15T17:41:16.627Z,29.63
2018-12-15T17:43:50.432Z,28.83
2018-12-15T17:46:24.543Z,27.53
2018-12-15T17:48:58.554Z,28.33
2018-12-15T17:51:32.562Z,27.13
2018-12-15T17:54:06.470Z,26.63
2018-12-15T17:56:40.377Z,26.90
2018-12-15T17:59:14.284Z,26.63
2018-12-15T18:01:48.191Z,28.30
2018-12-15T18:04:22.202Z,26.73
2018-12-15T18:06:56.108Z,28.93
2018-12-15T18:09:30.016Z,28.77
2018-12-15T18:12:04.029Z,26.80
2018-12-15T18:14:37.932Z,27.90
2018-12-15T18:17:11.839Z,29.37
2018-12-15T18:19:45.645Z,28.70
2018-12-15T18:22:19.552Z,27.93
2018-12-15T18:24:53.562Z,27.87
2018-12-15T18:27:27.514Z,28.27
2018-12-15T18:30:01.580Z,26.60
2018-12-15T18:32:35.694Z,28.03
2018-12-15T18:35:09.602Z,27.83
2018-12-15T18:37:43.459Z,31.90
2018-12-15T18:40:17.516Z,27.73
2018-12-15T18:42:51.321Z,28.50
2018-12-15T18:45:25.272Z,27.77
2018-12-15T18:47:59.242Z,29.63
2018-12-15T18:50:33.247Z,26.23
2018-12-15T18:53:06.948Z,30.00
2018-12-15T18:55:40.860Z,30.80
2018-12-15T18:58:14.667Z,29.20
2018-12-15T19:00:48.466Z,28.60
2018-12-15T19:03:23.214Z,30.53
2018-12-15T19:05:57.276Z,25.93
2018-12-15T19:08:31.314Z,27.53
2018-12-15T19:11:05.324Z,28.20
2018-12-15T19:13:39.202Z,25.90
2018-12-15T19:16:13.240Z,28.13
2018-12-15T19:18:46.944Z,26.60
2018-12-15T19:21:23.067Z,24.87
2018-12-15T19:23:57.113Z,20.57
2018-12-15T19:26:31.838Z,23.17
2018-12-15T19:29:05.747Z,21.87
2018-12-15T19:31:39.652Z,20.50
2018-12-15T19:34:17.436Z,18.30
2018-12-15T19:36:49.720Z,19.53
2018-12-15T19:39:23.730Z,19.93
2018-12-15T19:41:57.535Z,18.63
2018-12-15T19:44:31.445Z,21.90
2018-12-15T19:47:05.352Z,23.47
2018-12-15T19:49:39.217Z,23.67
2018-12-15T19:52:13.265Z,24.03
2018-12-15T19:54:47.026Z,22.33
2018-12-15T19:57:21.187Z,22.53
2018-12-15T19:59:54.985Z,23.67
2018-12-15T20:02:28.791Z,25.03
2018-12-15T20:05:02.596Z,28.67
2018-12-15T20:07:36.502Z,26.57
2018-12-15T20:10:10.255Z,25.60
2018-12-15T20:12:44.317Z,26.83
2018-12-15T20:15:18.290Z,25.27
2018-12-15T20:17:52.439Z,26.03
2018-12-15T20:20:26.071Z,25.10
2018-12-15T20:22:59.946Z,22.07
2018-12-15T20:25:33.853Z,22.97
2018-12-15T20:28:07.657Z,25.60
2018-12-15T20:30:41.769Z,27.77
2018-12-15T20:33:15.638Z,28.73
2018-12-15T20:35:49.687Z,27.57
2018-12-15T20:38:23.594Z,27.50
2018-12-15T20:40:57.499Z,29.37
2018-12-15T20:43:31.407Z,29.70
2018-12-15T20:46:05.213Z,28.73
2018-12-15T20:48:39.018Z,28.10
2018-12-15T20:51:12.812Z,28.80
2018-12-15T20:53:46.732Z,31.13
2018-12-15T20:56:20.738Z,31.30
2018-12-15T20:58:54.510Z,30.87
2018-12-15T21:01:28.603Z,29.23
2018-12-15T21:04:02.563Z,31.63
2018-12-15T21:06:36.469Z,30.20
2018-12-15T21:09:10.275Z,30.57
2018-12-15T21:11:44.079Z,28.77
2018-12-15T21:14:17.887Z,33.67
2018-12-15T21:16:51.619Z,31.00
2018-12-15T21:19:25.502Z,28.30
2018-12-15T21:21:59.412Z,28.97
2018-12-15T21:24:33.206Z,30.03
2018-12-15T21:27:07.216Z,29.73
2018-12-15T21:29:41.439Z,28.30
2018-12-15T21:32:15.336Z,30.13
2018-12-15T21:34:49.259Z,28.53
2018-12-15T21:37:23.355Z,32.37
2018-12-15T21:39:57.058Z,30.00
2018-12-15T21:42:31.750Z,30.10
2018-12-15T21:45:06.203Z,28.73
2018-12-15T21:47:41.753Z,29.70
2018-12-15T21:50:15.760Z,28.70
2018-12-15T21:52:49.671Z,28.07
2018-12-15T21:55:23.471Z,29.07
2018-12-15T21:57:57.584Z,29.13
2018-12-15T22:00:31.387Z,28.63
2018-12-15T22:03:05.295Z,28.40
2018-12-15T22:05:39.307Z,27.10
2018-12-15T22:08:13.077Z,26.63
2018-12-15T22:10:47.021Z,28.77
2018-12-15T22:13:21.765Z,27.17
2018-12-15T22:15:55.803Z,28.77
2018-12-15T22:18:29.821Z,26.20
2018-12-15T22:21:03.873Z,27.57
2018-12-15T22:23:37.884Z,26.67
2018-12-15T22:26:11.900Z,27.27
2018-12-15T22:28:45.803Z,25.47
2018-12-15T22:31:19.812Z,25.67
2018-12-15T22:33:53.637Z,26.03
2018-12-15T22:36:27.635Z,27.47
2018-12-15T22:39:01.326Z,25.60
2018-12-15T22:41:35.337Z,26.63
2018-12-15T22:44:09.242Z,26.13
2018-12-15T22:46:43.253Z,23.20
2018-12-15T22:49:17.261Z,29.87
2018-12-15T22:51:51.219Z,27.57
2018-12-15T22:54:25.244Z,29.17
2018-12-15T22:57:00.626Z,28.47
2018-12-15T22:59:34.624Z,25.50
2018-12-15T23:02:08.742Z,25.07
2018-12-15T23:04:42.531Z,24.93
2018-12-15T23:07:16.659Z,23.40
2018-12-15T23:09:50.566Z,25.10
2018-12-15T23:12:24.580Z,24.60
2018-12-15T23:14:58.483Z,23.90
2018-12-15T23:17:32.389Z,25.10
2018-12-15T23:20:06.707Z,19.83
2018-12-15T23:22:40.495Z,24.20
2018-12-15T23:25:14.432Z,21.30
2018-12-15T23:27:48.325Z,21.20
2018-12-15T23:30:22.437Z,24.57
2018-12-15T23:32:56.509Z,23.90
2018-12-15T23:35:30.354Z,22.13
2018-12-15T23:38:04.365Z,17.40
2018-12-15T23:40:38.122Z,18.00
2018-12-15T23:43:12.178Z,16.07
2018-12-15T23:45:46.187Z,15.53
2018-12-15T23:48:20.048Z,17.67
2018-12-15T23:50:54.003Z,17.23
2018-12-15T23:53:28.114Z,13.40
2018-12-15T23:56:02.022Z,13.93
2018-12-15T23:58:36.136Z,11.97
